sensor_id;sensor_type;location;lat;lon;timestamp;pressure;altitude;pressure_sealevel;temperature;humidity
74422;BME280;62856;51.446;8.360;2023-08-01T19:24:31;96665.94;;;21.16;59.78
74422;BME280;62856;51.446;8.360;2023-08-01T19:26:57;96673.72;;;21.11;60.07
74422;BME280;62856;51.446;8.360;2023-08-01T19:29:22;96670.22;;;21.07;60.12
74422;BME280;62856;51.446;8.360;2023-08-01T19:31:48;96678.03;;;21.05;60.67
74422;BME280;62856;51.446;8.360;2023-08-01T19:34:13;96685.06;;;21.06;60.63
74422;BME280;62856;51.446;8.360;2023-08-01T19:36:39;96678.81;;;21.05;61.06
74422;BME280;62856;51.446;8.360;2023-08-01T19:39:04;96678.81;;;21.05;61.29
74422;BME280;62856;51.446;8.360;2023-08-01T19:41:30;96685.06;;;21.06;61.28
74422;BME280;62856;51.446;8.360;2023-08-01T19:43:58;96684.69;;;21.07;61.78
74422;BME280;62856;51.446;8.360;2023-08-01T19:46:23;96686.66;;;21.10;61.65
74422;BME280;62856;51.446;8.360;2023-08-01T19:48:49;96692.56;;;21.12;61.62
74422;BME280;62856;51.446;8.360;2023-08-01T19:51:17;96698.44;;;21.14;61.88
74422;BME280;62856;51.446;8.360;2023-08-01T19:53:43;96691.38;;;21.13;61.70
74422;BME280;62856;51.446;8.360;2023-08-01T19:56:08;96703.94;;;21.14;61.43
74422;BME280;62856;51.446;8.360;2023-08-01T19:58:34;96703.94;;;21.14;61.65
74422;BME280;62856;51.446;8.360;2023-08-01T20:00:59;96707.03;;;21.13;61.49
74422;BME280;62856;51.446;8.360;2023-08-01T20:03:26;96696.06;;;21.13;61.14
74422;BME280;62856;51.446;8.360;2023-08-01T20:05:57;96705.47;;;21.15;61.33
74422;BME280;62856;51.446;8.360;2023-08-01T20:08:23;96706.66;;;21.14;61.44
74422;BME280;62856;51.446;8.360;2023-08-01T20:10:54;96704.69;;;21.11;61.61
74422;BME280;62856;51.446;8.360;2023-08-01T20:13:20;96710.56;;;21.17;61.71
74422;BME280;62856;51.446;8.360;2023-08-01T20:15:45;96708.63;;;21.17;61.74
74422;BME280;62856;51.446;8.360;2023-08-01T20:18:10;96718.41;;;21.18;61.64
74422;BME280;62856;51.446;8.360;2023-08-01T20:20:36;96712.53;;;21.16;61.68
74422;BME280;62856;51.446;8.360;2023-08-01T20:23:02;96706.28;;;21.16;61.60
74422;BME280;62856;51.446;8.360;2023-08-01T20:25:28;96708.63;;;21.17;61.41
74422;BME280;62856;51.446;8.360;2023-08-01T20:27:53;96704.31;;;21.16;61.29
74422;BME280;62856;51.446;8.360;2023-08-01T20:30:19;96702.75;;;21.15;61.34
74422;BME280;62856;51.446;8.360;2023-08-01T20:32:45;96707.03;;;21.16;61.35
74422;BME280;62856;51.446;8.360;2023-08-01T20:35:11;96715.66;;;21.15;61.20
74422;BME280;62856;51.446;8.360;2023-08-01T20:37:37;96709.41;;;21.14;61.48
74422;BME280;62856;51.446;8.360;2023-08-01T20:40:03;96716.06;;;21.17;61.10
74422;BME280;62856;51.446;8.360;2023-08-01T20:42:29;96715.25;;;21.16;61.11
74422;BME280;62856;51.446;8.360;2023-08-01T20:44:56;96721.53;;;21.17;61.11
74422;BME280;62856;51.446;8.360;2023-08-01T20:47:24;96718.41;;;21.18;61.18
74422;BME280;62856;51.446;8.360;2023-08-01T20:49:49;96718.00;;;21.16;61.03
74422;BME280;62856;51.446;8.360;2023-08-01T20:52:15;96717.63;;;21.14;61.23
74422;BME280;62856;51.446;8.360;2023-08-01T20:54:41;96710.56;;;21.13;60.86
74422;BME280;62856;51.446;8.360;2023-08-01T20:57:06;96717.63;;;21.14;61.08
74422;BME280;62856;51.446;8.360;2023-08-01T20:59:32;96725.84;;;21.14;61.19
74422;BME280;62856;51.446;8.360;2023-08-01T21:01:57;96729.75;;;21.13;60.97
74422;BME280;62856;51.446;8.360;2023-08-01T21:04:22;96720.72;;;21.09;61.30
74422;BME280;62856;51.446;8.360;2023-08-01T21:06:48;96726.22;;;21.13;61.10
74422;BME280;62856;51.446;8.360;2023-08-01T21:09:14;96726.22;;;21.13;60.77
74422;BME280;62856;51.446;8.360;2023-08-01T21:11:41;96719.97;;;21.12;60.85
74422;BME280;62856;51.446;8.360;2023-08-01T21:14:08;96721.91;;;21.12;61.07
74422;BME280;62856;51.446;8.360;2023-08-01T21:16:33;96719.56;;;21.10;60.98
74422;BME280;62856;51.446;8.360;2023-08-01T21:18:59;96715.63;;;21.11;60.97
74422;BME280;62856;51.446;8.360;2023-08-01T21:21:24;96716.03;;;21.10;60.87
74422;BME280;62856;51.446;8.360;2023-08-01T21:23:50;96717.59;;;21.11;60.92
74422;BME280;62856;51.446;8.360;2023-08-01T21:26:15;96715.63;;;21.11;60.63
74422;BME280;62856;51.446;8.360;2023-08-01T21:28:41;96719.16;;;21.08;60.33
74422;BME280;62856;51.446;8.360;2023-08-01T21:31:07;96719.94;;;21.09;60.33
74422;BME280;62856;51.446;8.360;2023-08-01T21:33:32;96724.63;;;21.08;60.34
74422;BME280;62856;51.446;8.360;2023-08-01T21:36:00;96719.53;;;21.07;60.47
74422;BME280;62856;51.446;8.360;2023-08-01T21:38:26;96721.09;;;21.08;60.32
74422;BME280;62856;51.446;8.360;2023-08-01T21:40:51;96732.06;;;21.08;60.73
74422;BME280;62856;51.446;8.360;2023-08-01T21:43:20;96730.13;;;21.08;60.26
74422;BME280;62856;51.446;8.360;2023-08-01T21:45:56;96726.97;;;21.06;60.30
74422;BME280;62856;51.446;8.360;2023-08-01T21:48:22;96729.72;;;21.06;60.27
74422;BME280;62856;51.446;8.360;2023-08-01T21:50:49;96734.00;;;21.07;60.42
74422;BME280;62856;51.446;8.360;2023-08-01T21:53:15;96723.03;;;21.07;60.04
74422;BME280;62856;51.446;8.360;2023-08-01T21:55:41;96725.03;;;21.07;60.20
74422;BME280;62856;51.446;8.360;2023-08-01T21:58:06;96715.63;;;21.08;60.32
74422;BME280;62856;51.446;8.360;2023-08-01T22:00:32;96717.56;;;21.04;60.42
74422;BME280;62856;51.446;8.360;2023-08-01T22:02:57;96720.69;;;21.06;60.11
74422;BME280;62856;51.446;8.360;2023-08-01T22:05:23;96721.50;;;21.06;60.11
74422;BME280;62856;51.446;8.360;2023-08-01T22:07:48;96720.28;;;21.04;60.11
74422;BME280;62856;51.446;8.360;2023-08-01T22:10:14;96714.03;;;21.03;60.08
74422;BME280;62856;51.446;8.360;2023-08-01T22:12:42;96715.59;;;21.04;60.34
74422;BME280;62856;51.446;8.360;2023-08-01T22:15:09;96717.56;;;21.04;59.96
74422;BME280;62856;51.446;8.360;2023-08-01T22:17:34;96716.41;;;21.05;60.12
74422;BME280;62856;51.446;8.360;2023-08-01T22:20:06;96721.09;;;21.04;59.93
74422;BME280;62856;51.446;8.360;2023-08-01T22:22:31;96717.56;;;21.04;59.81
74422;BME280;62856;51.446;8.360;2023-08-01T22:24:57;96722.63;;;21.02;59.74
74422;BME280;62856;51.446;8.360;2023-08-01T22:27:23;96720.28;;;21.00;59.94
74422;BME280;62856;51.446;8.360;2023-08-01T22:29:48;96723.81;;;21.01;59.73
74422;BME280;62856;51.446;8.360;2023-08-01T22:32:14;96723.38;;;20.99;59.72
74422;BME280;62856;51.446;8.360;2023-08-01T22:34:39;96726.53;;;21.01;59.63
74422;BME280;62856;51.446;8.360;2023-08-01T22:37:05;96728.50;;;21.00;59.68
74422;BME280;62856;51.446;8.360;2023-08-01T22:39:31;96722.25;;;21.00;59.61
74422;BME280;62856;51.446;8.360;2023-08-01T22:41:59;96717.09;;;20.98;59.64
74422;BME280;62856;51.446;8.360;2023-08-01T22:44:24;96718.72;;;20.99;59.77
74422;BME280;62856;51.446;8.360;2023-08-01T22:46:51;96717.09;;;20.98;59.53
74422;BME280;62856;51.446;8.360;2023-08-01T22:49:16;96728.84;;;20.99;59.63
74422;BME280;62856;51.446;8.360;2023-08-01T22:51:42;96726.09;;;20.99;59.47
74422;BME280;62856;51.446;8.360;2023-08-01T22:54:07;96719.84;;;20.98;59.68
74422;BME280;62856;51.446;8.360;2023-08-01T22:56:34;96704.94;;;20.89;59.50
74422;BME280;62856;51.446;8.360;2023-08-01T22:59:00;96716.69;;;20.96;59.85
74422;BME280;62856;51.446;8.360;2023-08-01T23:01:25;96710.84;;;20.98;59.39
74422;BME280;62856;51.446;8.360;2023-08-01T23:03:53;96713.94;;;20.96;59.56
74422;BME280;62856;51.446;8.360;2023-08-01T23:06:19;96719.44;;;20.96;59.43
74422;BME280;62856;51.446;8.360;2023-08-01T23:08:48;96725.69;;;20.97;59.48
74422;BME280;62856;51.446;8.360;2023-08-01T23:11:14;96717.88;;;20.95;59.59
74422;BME280;62856;51.446;8.360;2023-08-01T23:13:39;96710.44;;;20.96;59.42
74422;BME280;62856;51.446;8.360;2023-08-01T23:16:05;96703.38;;;20.95;59.36
74422;BME280;62856;51.446;8.360;2023-08-01T23:18:30;96703.38;;;20.95;59.61
74422;BME280;62856;51.446;8.360;2023-08-01T23:21:00;96697.88;;;20.91;59.28
74422;BME280;62856;51.446;8.360;2023-08-01T23:23:26;96701.03;;;20.93;59.19
74422;BME280;62856;51.446;8.360;2023-08-01T23:26:12;96702.97;;;20.93;59.52
74422;BME280;62856;51.446;8.360;2023-08-01T23:28:37;96698.69;;;20.92;59.31
74422;BME280;62856;51.446;8.360;2023-08-01T23:31:03;96689.66;;;20.91;59.28
74422;BME280;62856;51.446;8.360;2023-08-01T23:33:31;96695.16;;;20.91;59.32
74422;BME280;62856;51.446;8.360;2023-08-01T23:35:57;96675.94;;;20.88;59.47
74422;BME280;62856;51.446;8.360;2023-08-01T23:38:27;96692.41;;;20.91;59.30
74422;BME280;62856;51.446;8.360;2023-08-01T23:40:52;96705.34;;;20.91;59.22
74422;BME280;62856;51.446;8.360;2023-08-01T23:43:18;96693.59;;;20.90;59.33
74422;BME280;62856;51.446;8.360;2023-08-01T23:45:51;96694.38;;;20.91;59.53
74422;BME280;62856;51.446;8.360;2023-08-01T23:48:20;96692.78;;;20.90;59.72
74422;BME280;62856;51.446;8.360;2023-08-01T23:50:47;96680.63;;;20.87;59.52
74422;BME280;62856;51.446;8.360;2023-08-01T23:53:14;96691.25;;;20.92;59.51
74422;BME280;62856;51.446;8.360;2023-08-01T23:55:39;96687.72;;;20.92;59.24
74422;BME280;62856;51.446;8.360;2023-08-01T23:58:05;96691.25;;;20.92;59.53
